createdAt,value
2019-05-05T00:01:48.820Z,82.08
2019-05-05T00:04:30.635Z,81.92
2019-05-05T00:06:57.943Z,82.10
2019-05-05T00:09:25.456Z,82.20
2019-05-05T00:12:10.313Z,81.82
2019-05-05T00:14:39.598Z,82.26
2019-05-05T00:17:11.627Z,82.36
2019-05-05T00:19:39.235Z,82.24
2019-05-05T00:22:07.003Z,82.23
2019-05-05T00:24:35.074Z,83.18
2019-05-05T00:27:04.282Z,84.13
2019-05-05T00:29:32.145Z,83.33
2019-05-05T00:32:00.543Z,84.11
2019-05-05T00:34:32.507Z,83.95
2019-05-05T00:36:59.957Z,83.59
2019-05-05T00:39:28.138Z,83.50
2019-05-05T00:41:55.892Z,83.31
2019-05-05T00:44:24.707Z,83.55
2019-05-05T00:46:55.032Z,83.34
2019-05-05T00:49:25.002Z,83.05
2019-05-05T00:51:54.561Z,83.24
2019-05-05T00:54:21.422Z,83.15
2019-05-05T00:56:48.735Z,83.04
2019-05-05T00:59:17.816Z,83.10
2019-05-05T01:01:49.720Z,83.10
2019-05-05T01:04:18.875Z,82.62
2019-05-05T01:06:46.512Z,82.74
2019-05-05T01:09:15.901Z,82.59
2019-05-05T01:11:44.628Z,82.58
2019-05-05T01:14:14.443Z,82.61
2019-05-05T01:16:42.306Z,82.80
2019-05-05T01:19:09.804Z,82.84
2019-05-05T01:21:37.453Z,82.89
2019-05-05T01:24:05.402Z,82.94
2019-05-05T01:26:35.207Z,82.65
2019-05-05T01:29:05.286Z,82.46
2019-05-05T01:31:34.670Z,82.54
2019-05-05T01:34:06.889Z,82.98
2019-05-05T01:36:34.684Z,83.02
2019-05-05T01:39:20.006Z,82.88
2019-05-05T01:41:50.005Z,82.51
2019-05-05T01:44:18.533Z,82.55
2019-05-05T01:46:46.600Z,82.77
2019-05-05T01:49:15.159Z,82.68
2019-05-05T01:51:44.537Z,82.82
2019-05-05T01:54:12.077Z,82.88
2019-05-05T01:56:40.441Z,83.06
2019-05-05T01:59:08.135Z,82.84
2019-05-05T02:01:40.369Z,83.03
2019-05-05T02:04:08.268Z,83.37
2019-05-05T02:06:37.327Z,83.39
2019-05-05T02:09:06.217Z,83.52
2019-05-05T02:11:36.387Z,83.37
2019-05-05T02:14:05.101Z,83.75
2019-05-05T02:16:34.537Z,83.61
2019-05-05T02:19:05.036Z,83.18
2019-05-05T02:21:35.096Z,82.96
2019-05-05T02:24:05.059Z,82.97
2019-05-05T02:26:34.873Z,83.17
2019-05-05T02:29:20.092Z,82.90
2019-05-05T02:32:06.801Z,82.99
2019-05-05T02:34:36.098Z,83.01
2019-05-05T02:37:05.516Z,82.51
2019-05-05T02:39:35.336Z,82.44
2019-05-05T02:42:05.772Z,81.98
2019-05-05T02:44:34.798Z,82.41
2019-05-05T02:47:19.301Z,82.17
2019-05-05T02:49:47.245Z,82.02
2019-05-05T02:52:16.085Z,82.13
2019-05-05T02:54:44.297Z,82.14
2019-05-05T02:57:13.587Z,81.98
2019-05-05T02:59:55.759Z,81.60
2019-05-05T03:02:25.713Z,81.52
2019-05-05T03:04:53.940Z,81.22
2019-05-05T03:07:25.128Z,81.51
2019-05-05T03:09:54.521Z,81.16
2019-05-05T03:12:25.789Z,80.91
2019-05-05T03:14:56.590Z,81.12
2019-05-05T03:17:24.978Z,81.31
2019-05-05T03:19:53.529Z,81.20
2019-05-05T03:22:23.521Z,81.26
2019-05-05T03:24:53.953Z,81.46
2019-05-05T03:27:23.586Z,81.50
2019-05-05T03:29:53.539Z,80.99
2019-05-05T03:32:24.850Z,80.93
2019-05-05T03:34:53.571Z,80.90
2019-05-05T03:37:21.927Z,80.87
2019-05-05T03:39:53.712Z,81.03
2019-05-05T03:42:26.108Z,80.94
2019-05-05T03:44:58.617Z,80.57
2019-05-05T03:47:27.257Z,80.57
2019-05-05T03:49:55.434Z,80.79
2019-05-05T03:52:24.465Z,80.87
2019-05-05T03:54:54.083Z,80.70
2019-05-05T03:57:21.497Z,80.77
2019-05-05T03:59:49.152Z,80.50
2019-05-05T04:02:35.075Z,79.91
2019-05-05T04:05:08.422Z,79.97
2019-05-05T04:07:36.135Z,80.09
2019-05-05T04:10:04.165Z,80.40
2019-05-05T04:12:34.454Z,80.00
2019-05-05T04:15:03.680Z,79.76
2019-05-05T04:17:35.471Z,79.76
2019-05-05T04:20:05.405Z,79.72
2019-05-05T04:22:34.370Z,79.57
2019-05-05T04:25:04.609Z,79.40
2019-05-05T04:27:34.274Z,79.48
2019-05-05T04:30:03.725Z,78.40
2019-05-05T04:32:34.714Z,77.90
2019-05-05T04:35:03.668Z,77.14
2019-05-05T04:37:31.457Z,76.39
2019-05-05T04:39:58.795Z,77.40
2019-05-05T04:42:26.826Z,77.50
2019-05-05T04:44:54.324Z,77.31
2019-05-05T04:47:23.824Z,77.31
2019-05-05T04:49:53.797Z,77.16
2019-05-05T04:52:23.698Z,74.37
2019-05-05T04:54:55.485Z,70.36
2019-05-05T04:57:24.061Z,69.67
2019-05-05T04:59:54.014Z,69.70
2019-05-05T05:02:30.250Z,68.29
2019-05-05T05:05:16.295Z,66.97
2019-05-05T05:07:43.992Z,65.48
2019-05-05T05:10:11.361Z,66.21
2019-05-05T05:12:40.667Z,68.30
2019-05-05T05:15:08.545Z,68.43
2019-05-05T05:17:44.271Z,66.62
2019-05-05T05:20:14.022Z,66.75
2019-05-05T05:22:41.189Z,65.07
2019-05-05T05:25:08.772Z,61.96
2019-05-05T05:27:36.339Z,61.83
2019-05-05T05:30:04.725Z,60.19
2019-05-05T05:32:34.017Z,61.34
2019-05-05T05:35:03.719Z,61.58
2019-05-05T05:37:31.260Z,59.87
2019-05-05T05:40:17.187Z,58.88
2019-05-05T05:42:45.133Z,59.19
2019-05-05T05:45:31.227Z,58.16
2019-05-05T05:48:00.457Z,54.86
2019-05-05T05:50:41.816Z,55.73
2019-05-05T05:53:09.327Z,54.86
2019-05-05T05:55:36.836Z,55.48
2019-05-05T05:58:05.877Z,55.44
2019-05-05T06:00:34.361Z,55.58
2019-05-05T06:03:03.832Z,54.42
2019-05-05T06:05:31.831Z,58.19
2019-05-05T06:07:59.312Z,60.70
2019-05-05T06:10:27.529Z,62.77
2019-05-05T06:12:55.191Z,62.33
2019-05-05T06:15:24.409Z,62.82
2019-05-05T06:17:53.812Z,64.83
2019-05-05T06:20:21.339Z,62.89
2019-05-05T06:22:50.027Z,61.96
2019-05-05T06:25:17.509Z,63.33
2019-05-05T06:27:45.144Z,63.93
2019-05-05T06:30:13.782Z,62.27
2019-05-05T06:32:43.669Z,63.18
2019-05-05T06:35:11.440Z,64.75
2019-05-05T06:37:41.199Z,61.29
2019-05-05T06:40:10.602Z,62.31
2019-05-05T06:42:48.401Z,62.89
2019-05-05T06:45:20.616Z,61.47
2019-05-05T06:47:48.080Z,60.27
2019-05-05T06:50:15.452Z,62.25
2019-05-05T06:52:45.184Z,61.72
2019-05-05T06:55:14.173Z,63.41
2019-05-05T06:57:41.886Z,60.31
2019-05-05T07:00:09.566Z,59.09
2019-05-05T07:02:38.397Z,59.03
2019-05-05T07:05:05.875Z,59.60
2019-05-05T07:07:34.252Z,55.31
2019-05-05T07:10:03.760Z,47.06
2019-05-05T07:12:31.435Z,46.21
2019-05-05T07:14:59.232Z,42.02
2019-05-05T07:17:26.914Z,38.95
2019-05-05T07:19:54.515Z,41.28
2019-05-05T07:22:24.055Z,42.95
2019-05-05T07:24:54.020Z,39.12
2019-05-05T07:27:20.939Z,40.02
2019-05-05T07:29:48.240Z,37.82
2019-05-05T07:32:15.801Z,39.36
2019-05-05T07:34:45.051Z,43.65
2019-05-05T07:37:14.357Z,47.93
2019-05-05T07:39:41.869Z,50.58
2019-05-05T07:42:09.323Z,49.45
2019-05-05T07:44:37.127Z,46.75
2019-05-05T07:47:04.976Z,48.13
2019-05-05T07:49:33.572Z,42.41
2019-05-05T07:52:01.119Z,43.43
2019-05-05T07:54:28.694Z,41.33
2019-05-05T07:56:56.838Z,43.48
2019-05-05T07:59:24.224Z,40.45
2019-05-05T08:01:51.726Z,42.29
2019-05-05T08:04:19.694Z,42.51
2019-05-05T08:06:48.055Z,42.75
2019-05-05T08:09:15.728Z,41.83
2019-05-05T08:11:43.607Z,44.40
2019-05-05T08:14:11.323Z,42.87
2019-05-05T08:16:53.634Z,38.87
2019-05-05T08:19:38.353Z,39.78
2019-05-05T08:22:06.058Z,38.43
2019-05-05T08:24:54.403Z,36.54
2019-05-05T08:27:29.410Z,36.50
2019-05-05T08:30:04.595Z,37.95
2019-05-05T08:32:35.710Z,40.66
2019-05-05T08:35:04.760Z,40.61
2019-05-05T08:37:34.193Z,39.82
2019-05-05T08:40:01.853Z,40.43
2019-05-05T08:42:29.185Z,43.42
2019-05-05T08:44:56.879Z,41.37
2019-05-05T08:47:24.654Z,42.25
2019-05-05T08:49:53.822Z,41.91
2019-05-05T08:52:23.860Z,40.13
2019-05-05T08:54:54.056Z,38.22
2019-05-05T08:57:23.476Z,39.05
2019-05-05T08:59:51.164Z,39.59
2019-05-05T09:02:18.735Z,38.26
2019-05-05T09:04:46.097Z,36.57
2019-05-05T09:07:13.847Z,35.63
2019-05-05T09:09:41.361Z,35.50
2019-05-05T09:12:08.920Z,36.72
2019-05-05T09:14:36.460Z,38.51
2019-05-05T09:17:04.573Z,36.21
2019-05-05T09:19:34.440Z,37.09
2019-05-05T09:22:01.960Z,37.58
2019-05-05T09:24:34.209Z,37.15
2019-05-05T09:27:19.760Z,36.51
2019-05-05T09:29:47.462Z,36.09
2019-05-05T09:32:14.893Z,34.93
2019-05-05T09:34:43.616Z,33.51
2019-05-05T09:37:11.497Z,35.80
2019-05-05T09:39:38.931Z,33.61
2019-05-05T09:42:06.452Z,34.44
2019-05-05T09:44:34.648Z,35.89
2019-05-05T09:47:04.470Z,33.48
2019-05-05T09:49:33.738Z,33.94
2019-05-05T09:52:00.998Z,35.47
2019-05-05T09:54:30.479Z,32.37
2019-05-05T09:56:58.327Z,32.20
2019-05-05T09:59:25.806Z,33.12
2019-05-05T10:01:53.860Z,33.47
2019-05-05T10:04:24.299Z,32.73
2019-05-05T10:06:51.923Z,33.15
2019-05-05T10:09:19.458Z,36.56
2019-05-05T10:11:46.695Z,31.86
2019-05-05T10:14:14.514Z,33.23
2019-05-05T10:16:42.333Z,30.68
2019-05-05T10:19:09.574Z,33.95
2019-05-05T10:21:37.054Z,31.20
2019-05-05T10:24:27.833Z,30.45
2019-05-05T10:26:44.694Z,27.39
2019-05-05T10:29:13.608Z,27.19
2019-05-05T10:31:43.726Z,30.67
2019-05-05T10:34:13.637Z,28.62
2019-05-05T10:36:41.446Z,29.95
2019-05-05T10:39:12.219Z,27.01
2019-05-05T10:41:39.749Z,29.08
2019-05-05T10:44:07.196Z,29.06
2019-05-05T10:46:35.091Z,29.21
2019-05-05T10:49:03.551Z,28.86
2019-05-05T10:51:31.608Z,29.48
2019-05-05T10:53:59.494Z,29.52
2019-05-05T10:56:26.913Z,30.23
2019-05-05T10:58:54.682Z,30.62
2019-05-05T11:01:23.622Z,30.18
2019-05-05T11:03:51.124Z,29.27
2019-05-05T11:06:18.308Z,30.19
2019-05-05T11:08:45.886Z,31.01
2019-05-05T11:11:13.729Z,30.20
2019-05-05T11:13:45.531Z,29.28
2019-05-05T11:16:14.528Z,30.84
2019-05-05T11:18:42.294Z,30.00
2019-05-05T11:21:09.758Z,31.22
2019-05-05T11:23:37.389Z,31.66
2019-05-05T11:26:05.581Z,32.67
2019-05-05T11:28:33.948Z,29.82
2019-05-05T11:31:01.647Z,30.04
2019-05-05T11:33:48.004Z,31.20
2019-05-05T11:36:20.464Z,30.35
2019-05-05T11:38:47.743Z,30.09
2019-05-05T11:41:15.018Z,27.76
2019-05-05T11:43:43.712Z,28.39
2019-05-05T11:46:11.531Z,29.47
2019-05-05T11:48:39.044Z,29.17
2019-05-05T11:51:06.635Z,23.64
2019-05-05T11:53:34.404Z,23.18
2019-05-05T11:56:03.988Z,23.28
2019-05-05T11:58:33.903Z,22.95
2019-05-05T12:01:03.765Z,23.05
2019-05-05T12:03:31.215Z,25.33
2019-05-05T12:05:58.894Z,26.45
2019-05-05T12:08:26.669Z,28.70
2019-05-05T12:10:58.762Z,29.01
2019-05-05T12:13:26.599Z,27.46
2019-05-05T12:15:56.287Z,24.60
2019-05-05T12:18:24.305Z,26.16
2019-05-05T12:20:54.418Z,27.47
2019-05-05T12:23:22.514Z,27.46
2019-05-05T12:25:57.027Z,29.80
2019-05-05T12:28:24.480Z,25.44
2019-05-05T12:30:52.688Z,26.14
2019-05-05T12:33:20.224Z,26.53
2019-05-05T12:35:47.553Z,27.34
2019-05-05T12:38:14.598Z,29.73
2019-05-05T12:40:41.814Z,29.89
2019-05-05T12:43:08.971Z,28.95
2019-05-05T12:45:38.598Z,28.83
2019-05-05T12:48:08.357Z,28.99
2019-05-05T12:50:35.983Z,28.19
2019-05-05T12:53:04.186Z,26.46
2019-05-05T12:55:40.521Z,25.35
2019-05-05T12:58:03.396Z,26.37
2019-05-05T13:00:30.689Z,26.21
2019-05-05T13:02:58.055Z,24.12
2019-05-05T13:05:25.517Z,22.63
2019-05-05T13:07:53.095Z,21.96
2019-05-05T13:10:20.708Z,22.44
2019-05-05T13:12:48.559Z,25.07
2019-05-05T13:15:16.939Z,25.93
2019-05-05T13:17:44.631Z,26.89
2019-05-05T13:20:29.487Z,26.01
2019-05-05T13:23:08.170Z,25.76
2019-05-05T13:25:56.701Z,25.67
2019-05-05T13:28:23.824Z,28.37
2019-05-05T13:30:54.070Z,27.77
2019-05-05T13:33:21.707Z,25.87
2019-05-05T13:35:48.948Z,26.97
2019-05-05T13:38:16.375Z,25.89
2019-05-05T13:40:45.722Z,27.04
2019-05-05T13:43:14.464Z,26.93
2019-05-05T13:45:51.317Z,26.90
2019-05-05T13:48:19.204Z,27.56
2019-05-05T13:50:48.744Z,28.04
2019-05-05T13:53:16.650Z,29.60
2019-05-05T13:55:46.032Z,27.81
2019-05-05T13:58:14.694Z,27.41
2019-05-05T14:00:41.768Z,27.48
2019-05-05T14:03:08.637Z,28.67
2019-05-05T14:05:35.694Z,27.64
2019-05-05T14:08:04.174Z,28.15
2019-05-05T14:10:31.503Z,29.19
2019-05-05T14:12:58.754Z,29.57
2019-05-05T14:15:26.173Z,28.81
2019-05-05T14:17:54.430Z,28.16
2019-05-05T14:20:23.838Z,30.51
2019-05-05T14:22:51.848Z,29.41
2019-05-05T14:25:21.422Z,27.95
2019-05-05T14:27:49.438Z,28.92
2019-05-05T14:30:30.109Z,26.70
2019-05-05T14:32:58.566Z,26.70
2019-05-05T14:35:27.701Z,28.56
2019-05-05T14:37:57.499Z,28.37
2019-05-05T14:40:24.987Z,29.02
2019-05-05T14:42:53.960Z,29.02
2019-05-05T14:45:23.527Z,27.89
2019-05-05T14:47:51.039Z,29.68
2019-05-05T14:50:19.067Z,27.89
2019-05-05T14:52:47.273Z,29.56
2019-05-05T14:55:14.879Z,29.56
2019-05-05T14:57:44.087Z,29.23
2019-05-05T15:00:15.400Z,30.53
2019-05-05T15:02:43.883Z,30.24
2019-05-05T15:05:19.171Z,30.03
2019-05-05T15:07:53.597Z,29.53
2019-05-05T15:10:39.983Z,30.26
2019-05-05T15:13:09.369Z,29.34
2019-05-05T15:15:37.238Z,29.34
2019-05-05T15:18:04.895Z,30.07
2019-05-05T15:20:33.793Z,31.35
2019-05-05T15:23:01.769Z,31.50
2019-05-05T15:25:29.635Z,30.70
2019-05-05T15:27:57.204Z,30.70
2019-05-05T15:30:27.109Z,31.65
2019-05-05T15:32:54.559Z,31.83
2019-05-05T15:35:22.003Z,31.63
2019-05-05T15:37:49.803Z,32.40
2019-05-05T15:40:17.433Z,33.00
2019-05-05T15:42:45.104Z,32.18
2019-05-05T15:45:12.883Z,32.20
2019-05-05T15:47:40.438Z,32.60
2019-05-05T15:50:09.055Z,33.82
2019-05-05T15:52:36.666Z,33.19
2019-05-05T15:55:04.617Z,33.04
2019-05-05T15:57:33.604Z,31.62
2019-05-05T16:00:01.508Z,30.63
2019-05-05T16:02:29.162Z,30.63
2019-05-05T16:04:56.586Z,31.75
2019-05-05T16:07:24.406Z,30.04
2019-05-05T16:09:53.705Z,29.45
2019-05-05T16:12:31.998Z,29.68
2019-05-05T16:14:53.797Z,29.16
2019-05-05T16:17:35.103Z,29.99
2019-05-05T16:20:04.838Z,29.83
2019-05-05T16:22:34.681Z,29.77
2019-05-05T16:25:14.049Z,31.48
2019-05-05T16:27:44.028Z,31.79
2019-05-05T16:30:14.465Z,30.91
2019-05-05T16:32:42.104Z,30.55
2019-05-05T16:35:14.494Z,31.53
2019-05-05T16:37:42.375Z,31.53
2019-05-05T16:40:11.478Z,33.16
2019-05-05T16:42:39.118Z,32.78
2019-05-05T16:45:07.660Z,32.51
2019-05-05T16:47:35.341Z,32.43
2019-05-05T16:50:04.193Z,31.14
2019-05-05T16:52:33.178Z,30.86
2019-05-05T16:55:04.376Z,31.28
2019-05-05T16:57:34.133Z,32.07
2019-05-05T17:00:00.666Z,32.17
2019-05-05T17:02:27.643Z,31.98
2019-05-05T17:04:54.756Z,31.34
2019-05-05T17:07:23.774Z,30.30
2019-05-05T17:09:51.313Z,30.97
2019-05-05T17:12:18.469Z,32.79
2019-05-05T17:15:04.471Z,32.09
2019-05-05T17:17:34.100Z,31.66
2019-05-05T17:20:04.593Z,31.63
2019-05-05T17:22:36.276Z,32.46
2019-05-05T17:25:03.295Z,32.15
2019-05-05T17:27:30.438Z,33.58
2019-05-05T17:29:57.248Z,32.85
2019-05-05T17:32:24.873Z,33.14
2019-05-05T17:34:53.992Z,33.06
2019-05-05T17:37:20.790Z,33.85
2019-05-05T17:39:54.469Z,33.18
2019-05-05T17:42:24.017Z,34.71
2019-05-05T17:44:53.100Z,33.24
2019-05-05T17:47:28.566Z,33.89
2019-05-05T17:50:00.446Z,33.94
2019-05-05T17:52:35.281Z,34.11
2019-05-05T17:55:04.684Z,34.13
2019-05-05T17:57:32.104Z,32.56
2019-05-05T17:59:59.282Z,32.63
2019-05-05T18:02:26.152Z,32.99
2019-05-05T18:04:54.089Z,34.72
2019-05-05T18:07:29.280Z,33.41
2019-05-05T18:09:58.295Z,33.07
2019-05-05T18:12:40.063Z,34.68
2019-05-05T18:15:15.151Z,34.52
2019-05-05T18:17:43.428Z,33.78
2019-05-05T18:20:10.509Z,34.22
2019-05-05T18:22:37.503Z,34.95
2019-05-05T18:25:04.359Z,35.11
2019-05-05T18:27:31.594Z,33.82
2019-05-05T18:29:58.462Z,34.94
2019-05-05T18:32:25.165Z,35.21
2019-05-05T18:34:54.345Z,35.42
2019-05-05T18:37:21.531Z,35.60
2019-05-05T18:39:48.531Z,35.84
2019-05-05T18:42:17.265Z,36.79
2019-05-05T18:44:46.439Z,36.11
2019-05-05T18:47:18.640Z,36.52
2019-05-05T18:49:45.848Z,37.29
2019-05-05T18:52:13.884Z,36.79
2019-05-05T18:54:40.858Z,37.79
2019-05-05T18:57:08.702Z,37.95
2019-05-05T18:59:36.229Z,37.66
2019-05-05T19:02:11.052Z,38.28
2019-05-05T19:04:42.846Z,38.73
2019-05-05T19:07:11.510Z,39.33
2019-05-05T19:09:51.006Z,39.33
2019-05-05T19:12:10.227Z,40.18
2019-05-05T19:14:36.435Z,40.18
2019-05-05T19:17:04.592Z,40.50
2019-05-05T19:19:31.582Z,40.16
2019-05-05T19:22:00.981Z,40.57
2019-05-05T19:24:29.162Z,40.83
2019-05-05T19:26:56.216Z,41.20
2019-05-05T19:29:24.350Z,42.63
2019-05-05T19:31:51.539Z,41.55
2019-05-05T19:34:18.458Z,42.93
2019-05-05T19:36:45.538Z,44.56
2019-05-05T19:39:13.711Z,43.69
2019-05-05T19:41:41.391Z,45.45
2019-05-05T19:44:14.720Z,44.83
2019-05-05T19:46:44.182Z,46.04
2019-05-05T19:49:14.833Z,45.78
2019-05-05T19:51:41.754Z,46.41
2019-05-05T19:54:08.670Z,46.28
2019-05-05T19:56:36.756Z,46.42
2019-05-05T19:59:04.382Z,44.64
2019-05-05T20:01:35.367Z,45.93
2019-05-05T20:04:00.459Z,46.80
2019-05-05T20:06:27.786Z,46.83
2019-05-05T20:08:55.059Z,46.92
2019-05-05T20:11:21.924Z,46.58
2019-05-05T20:13:48.981Z,47.10
2019-05-05T20:16:18.048Z,47.50
2019-05-05T20:18:46.018Z,48.08
2019-05-05T20:21:14.501Z,48.78
2019-05-05T20:23:43.605Z,48.89
2019-05-05T20:26:10.548Z,49.83
2019-05-05T20:28:37.477Z,49.68
2019-05-05T20:31:04.376Z,50.39
2019-05-05T20:33:41.945Z,50.36
2019-05-05T20:36:14.564Z,50.28
2019-05-05T20:38:46.214Z,49.42
2019-05-05T20:41:17.886Z,50.30
2019-05-05T20:43:45.259Z,50.45
2019-05-05T20:46:12.206Z,49.33
2019-05-05T20:48:41.216Z,48.92
2019-05-05T20:51:08.352Z,49.19
2019-05-05T20:53:35.323Z,48.81
2019-05-05T20:56:04.219Z,48.75
2019-05-05T20:58:31.164Z,49.41
2019-05-05T21:00:58.656Z,49.58
2019-05-05T21:03:26.058Z,50.79
2019-05-05T21:05:53.855Z,50.77
2019-05-05T21:08:20.990Z,50.87
2019-05-05T21:10:47.965Z,51.17
2019-05-05T21:13:15.472Z,51.58
2019-05-05T21:15:45.024Z,51.04
2019-05-05T21:18:14.399Z,51.87
2019-05-05T21:20:41.125Z,52.97
2019-05-05T21:23:24.570Z,52.82
2019-05-05T21:25:56.064Z,52.71
2019-05-05T21:28:24.105Z,52.92
2019-05-05T21:30:51.107Z,53.50
2019-05-05T21:33:18.132Z,53.88
2019-05-05T21:35:45.373Z,54.19
2019-05-05T21:38:14.261Z,54.31
2019-05-05T21:40:43.907Z,54.08
2019-05-05T21:43:15.249Z,54.29
2019-05-05T21:45:44.378Z,54.88
2019-05-05T21:48:13.507Z,55.08
2019-05-05T21:50:44.695Z,54.84
2019-05-05T21:53:19.650Z,55.35
2019-05-05T21:55:51.141Z,54.73
2019-05-05T21:58:22.610Z,55.55
2019-05-05T22:00:50.649Z,56.20
2019-05-05T22:03:20.227Z,56.04
2019-05-05T22:05:47.459Z,56.85
2019-05-05T22:08:14.534Z,56.51
2019-05-05T22:10:41.532Z,55.91
2019-05-05T22:13:08.324Z,56.08
2019-05-05T22:15:35.757Z,56.15
2019-05-05T22:18:03.661Z,56.54
2019-05-05T22:20:47.595Z,56.78
2019-05-05T22:23:14.859Z,56.32
2019-05-05T22:25:43.677Z,56.24
2019-05-05T22:28:10.991Z,56.77
2019-05-05T22:30:38.025Z,57.56
2019-05-05T22:33:06.078Z,57.46
2019-05-05T22:35:34.940Z,57.33
2019-05-05T22:38:05.627Z,57.13
2019-05-05T22:40:30.565Z,57.51
2019-05-05T22:42:57.887Z,57.45
2019-05-05T22:45:25.038Z,57.26
2019-05-05T22:47:54.200Z,57.81
2019-05-05T22:50:20.906Z,58.08
2019-05-05T22:52:47.758Z,58.33
2019-05-05T22:55:14.731Z,59.28
2019-05-05T22:57:41.716Z,59.28
2019-05-05T23:00:25.312Z,59.03
2019-05-05T23:02:49.561Z,59.83
2019-05-05T23:05:24.404Z,60.03
2019-05-05T23:07:51.268Z,60.12
2019-05-05T23:10:18.391Z,59.87
2019-05-05T23:12:45.691Z,60.10
2019-05-05T23:15:14.497Z,60.00
2019-05-05T23:17:43.852Z,60.33
2019-05-05T23:20:16.342Z,60.76
2019-05-05T23:22:54.840Z,61.39
2019-05-05T23:25:24.188Z,61.47
2019-05-05T23:27:51.210Z,60.85
2019-05-05T23:30:20.371Z,61.55
2019-05-05T23:32:48.113Z,62.32
2019-05-05T23:35:16.280Z,62.50
2019-05-05T23:37:44.857Z,62.66
2019-05-05T23:40:14.331Z,62.60
2019-05-05T23:42:41.527Z,62.64
2019-05-05T23:45:08.575Z,63.21
2019-05-05T23:47:35.719Z,63.62
2019-05-05T23:50:04.513Z,63.88
2019-05-05T23:52:31.485Z,63.56
2019-05-05T23:54:58.450Z,63.32
2019-05-05T23:57:25.373Z,63.55
2019-05-05T23:59:53.714Z,63.65
